LIMJ/GOA METAR and TAF weather

Enter ICAO airport designator
Station Type Date Time Source
LIMJ METAR 2022/11/30 16:20 UTC NOAA

LIMJ 301620Z 04016KT CAVOK 07/02 Q1016


Station Type Date Time Source
LIMJ Decoded METAR 2022/11/30 16:20 UTC NOAA

Genova / Sestri, Italy (LIMJ) 44-25N 008-51E 3M
Nov 30, 2022 - 11:20 AM EST / 2022.11.30 1620 UTC
Wind: from the NE (040 degrees) at 18 MPH (16 KT):0
Visibility: greater than 7 mile(s):0
Temperature: 44 F (7 C)
Dew Point: 35 F (2 C)
Relative Humidity: 70%
Pressure (altimeter): 30.00 in. Hg (1016 hPa)
ob: LIMJ 301620Z 04016KT CAVOK 07/02 Q1016
cycle: 16

Station Type Date Time Source
LIMJ TAF 2022/11/30 12:21 UTC NOAA

TAF LIMJ 301100Z 3012/0112 03013KT CAVOK

Example: see airport list